EGHIEGJJ

Guest
Details From EGHI - Southampton
To EGJJ - Jersey
Flight Number -
Tags Routegen
Created
Modified
Stats Distance 109 nm / 202 km
Max Altitude 0 ft / 0 m
Waypoints 2
Social Downloads 21
Likes 0
Share

Download

Looking for another format? Having issues loading an existing format? Contact us
Advertisement - Login to hide

Notes

None

Route

EGHI EGJJ

ID Type Via Altitude (ft/m) Position (lat/lon) Dist (leg/tot) Name
O EGHI APT - 0 / 0 50.94295 / -1.36088 - / 0 nm
O EGJJ APT - 0 / 0 49.20699 / -2.20693 109 / 109 nm

Altitude Profile

Advertisement - Login to hide

EGHI

Details ICAO EGHI (SOU)
Name Southampton
Region United Kingdom
Timezone Europe/London (UTC+1.0)
Stats Elevation 41 ft / 12 m (AMSL)
Location 50.950300° -1.356790°
Runways 1
Magnetic Variation 0.437° W

METAR

EGHI 091420Z 22013KT 200V260 9999 OVC013 18/14 Q1012

Decode

TAF

Not found

Departure Runways

ID Width Length Bearing (true/mag) Surface Threshold Overrun Markings Lighting
02 121 ft / 37 m 5,651 ft / 1,722 m 19.36° / 19.79° ASPHALT 239 ft / 73 m 66 ft / 20 m UK-PREC-APP CENTERLINE EDGE THRESHOLD MALS
20 121 ft / 37 m 5,651 ft / 1,722 m 199.36° / 199.80° ASPHALT 151 ft / 46 m 0 ft / 0 m UK-PREC-APP CENTERLINE EDGE THRESHOLD MALS

EGJJ

Details ICAO EGJJ (JER)
Name Jersey
Region United Kingdom
Timezone Europe/Jersey (UTC+1.0)
Stats Elevation 276 ft / 84 m (AMSL)
Location 49.208000° -2.195260°
Runways 1
Magnetic Variation 0.540° W

METAR

EGJJ 091420Z 26012KT 9999 FEW012 BKN021 18/16 Q1015

Decode

TAF

Not found

Destination Runways

ID Width Length Bearing (true/mag) Surface Threshold Overrun Markings Lighting
08 150 ft / 46 m 5,579 ft / 1,700 m 82.72° / 83.26° ASPHALT 187 ft / 57 m 0 ft / 0 m UK-PREC-APP CENTERLINE EDGE THRESHOLD RAIL TDZ REIL-OMNI
26 150 ft / 46 m 5,579 ft / 1,700 m 262.74° / 263.28° ASPHALT 299 ft / 91 m 20 ft / 6 m UK-PREC-APP CENTERLINE EDGE THRESHOLD CALVERT-ILS TDZ REIL-OMNI

Approach Navaids

Runway Type Ident Frequency Range Bearing (true/mag) Slope Elevation
08 LOC-ILS IJJ 110.90 MHz 18 nm / 33 km 82.73° / 83.27 ° - 276 ft / 84 m (AMSL)
08 DME IJJ 110.90 MHz 18 nm / 33 km - - 287 ft / 87 m (AMSL)
08 GS IJJ 110.90 MHz 10 nm / 19 km 82.73° / 83.27 ° 3.00° 276 ft / 84 m (AMSL)
26 DME IDD 110.30 MHz 18 nm / 33 km - - 289 ft / 88 m (AMSL)
26 GS IDD 110.30 MHz 10 nm / 19 km 262.73° / 263.27 ° 3.00° 276 ft / 84 m (AMSL)
26 LOC-ILS IDD 110.30 MHz 18 nm / 33 km 262.73° / 263.27 ° - 276 ft / 84 m (AMSL)

Popular Alternatives